createdAt,value
2023-02-17T00:01:36.186Z,133.07
2023-02-17T00:04:04.251Z,132.18
2023-02-17T00:06:32.677Z,138.25
2023-02-17T00:09:02.024Z,133.38
2023-02-17T00:11:30.445Z,137.85
2023-02-17T00:13:59.452Z,139.18
2023-02-17T00:16:29.076Z,137.55
2023-02-17T00:19:01.012Z,132.50
2023-02-17T00:21:31.814Z,132.65
2023-02-17T00:24:00.010Z,136.30
2023-02-17T00:26:29.022Z,135.50
2023-02-17T00:28:58.641Z,134.18
2023-02-17T00:31:26.838Z,135.60
2023-02-17T00:33:56.042Z,132.00
2023-02-17T00:36:24.753Z,133.00
2023-02-17T00:38:55.205Z,133.55
2023-02-17T00:41:24.022Z,135.52
2023-02-17T00:43:51.519Z,131.02
2023-02-17T00:46:20.180Z,133.15
2023-02-17T00:48:48.909Z,135.95
2023-02-17T00:51:18.507Z,131.35
2023-02-17T00:53:46.984Z,131.55
2023-02-17T00:56:15.836Z,132.18
2023-02-17T00:58:46.367Z,133.73
2023-02-17T01:01:14.114Z,132.95
2023-02-17T01:03:42.381Z,139.63
2023-02-17T01:06:22.355Z,138.68
2023-02-17T01:08:50.657Z,137.13
2023-02-17T01:11:31.809Z,138.18
2023-02-17T01:14:02.072Z,133.88
2023-02-17T01:16:35.563Z,133.88
2023-02-17T01:19:11.511Z,142.48
2023-02-17T01:21:39.732Z,139.77
2023-02-17T01:24:13.121Z,140.18
2023-02-17T01:26:41.110Z,139.40
2023-02-17T01:29:09.278Z,140.23
2023-02-17T01:31:37.144Z,137.63
2023-02-17T01:34:05.652Z,140.20
2023-02-17T01:36:34.307Z,139.25
2023-02-17T01:39:01.953Z,138.43
2023-02-17T01:41:30.298Z,143.55
2023-02-17T01:44:21.837Z,143.23
2023-02-17T01:46:52.729Z,149.18
2023-02-17T01:49:38.376Z,147.23
2023-02-17T01:52:24.867Z,142.63
2023-02-17T01:55:01.436Z,139.00
2023-02-17T01:57:32.257Z,142.27
2023-02-17T02:00:00.317Z,134.35
2023-02-17T02:02:31.056Z,132.30
2023-02-17T02:04:59.065Z,131.57
2023-02-17T02:07:36.710Z,132.10
2023-02-17T02:10:05.208Z,130.55
2023-02-17T02:12:38.667Z,134.55
2023-02-17T02:15:13.198Z,131.18
2023-02-17T02:17:59.632Z,128.68
2023-02-17T02:20:33.842Z,133.50
2023-02-17T02:23:32.413Z,131.35
2023-02-17T02:26:47.626Z,129.43
2023-02-17T02:29:20.824Z,125.65
2023-02-17T02:32:38.168Z,130.02
2023-02-17T02:35:22.647Z,125.82
2023-02-17T02:38:12.670Z,127.38
2023-02-17T02:40:50.218Z,128.15
2023-02-17T02:43:18.707Z,126.15
2023-02-17T02:45:46.435Z,127.50
2023-02-17T02:48:14.032Z,126.65
2023-02-17T02:51:06.235Z,128.30
2023-02-17T02:53:52.648Z,126.97
2023-02-17T02:56:48.532Z,128.73
2023-02-17T02:59:31.932Z,125.07
2023-02-17T03:02:29.924Z,121.97
2023-02-17T03:05:53.381Z,114.22
2023-02-17T03:08:38.392Z,107.95
2023-02-17T03:11:07.517Z,106.80
2023-02-17T03:13:39.556Z,107.70
2023-02-17T03:16:12.208Z,106.70
2023-02-17T03:18:40.252Z,104.15
2023-02-17T03:21:16.417Z,106.70
2023-02-17T03:23:44.091Z,101.88
2023-02-17T03:26:12.171Z,97.05
2023-02-17T03:28:40.106Z,96.47
2023-02-17T03:31:08.889Z,94.13
2023-02-17T03:33:36.932Z,95.45
2023-02-17T03:36:05.421Z,92.20
2023-02-17T03:38:33.685Z,94.50
2023-02-17T03:41:01.225Z,91.53
2023-02-17T03:43:29.258Z,92.57
2023-02-17T03:45:57.289Z,90.47
2023-02-17T03:48:25.331Z,91.63
2023-02-17T03:50:53.351Z,92.47
2023-02-17T03:53:21.174Z,91.00
2023-02-17T03:55:49.140Z,93.80
2023-02-17T03:58:16.666Z,95.70
2023-02-17T04:00:44.107Z,89.07
2023-02-17T04:03:12.096Z,91.10
2023-02-17T04:05:40.050Z,91.03
2023-02-17T04:08:08.024Z,93.53
2023-02-17T04:10:35.491Z,92.10
2023-02-17T04:13:04.089Z,89.78
2023-02-17T04:15:32.795Z,90.55
2023-02-17T04:18:00.468Z,88.35
2023-02-17T04:20:28.464Z,93.32
2023-02-17T04:22:56.856Z,92.63
2023-02-17T04:25:24.828Z,91.82
2023-02-17T04:27:52.871Z,87.43
2023-02-17T04:30:20.534Z,87.28
2023-02-17T04:32:48.125Z,91.55
2023-02-17T04:35:15.708Z,90.90
2023-02-17T04:37:43.806Z,89.05
2023-02-17T04:40:12.221Z,89.45
2023-02-17T04:42:40.137Z,87.40
2023-02-17T04:45:08.502Z,86.38
2023-02-17T04:47:36.793Z,81.97
2023-02-17T04:50:05.787Z,85.55
2023-02-17T04:52:33.722Z,82.25
2023-02-17T04:55:02.396Z,85.57
2023-02-17T04:57:30.048Z,80.88
2023-02-17T04:59:57.634Z,76.35
2023-02-17T05:02:28.498Z,68.15
2023-02-17T05:04:56.558Z,62.00
2023-02-17T05:07:24.708Z,65.88
2023-02-17T05:09:54.245Z,71.53
2023-02-17T05:12:22.260Z,74.35
2023-02-17T05:14:50.151Z,74.45
2023-02-17T05:17:18.653Z,69.70
2023-02-17T05:19:46.119Z,76.38
2023-02-17T05:22:14.145Z,76.20
2023-02-17T05:24:42.169Z,79.10
2023-02-17T05:27:09.929Z,77.57
2023-02-17T05:29:38.176Z,80.53
2023-02-17T05:32:05.719Z,84.07
2023-02-17T05:34:33.719Z,83.68
2023-02-17T05:37:01.629Z,83.60
2023-02-17T05:39:29.505Z,87.95
2023-02-17T05:41:57.639Z,86.20
2023-02-17T05:44:25.740Z,85.93
2023-02-17T05:46:53.978Z,89.45
2023-02-17T05:49:22.008Z,86.25
2023-02-17T05:51:49.655Z,85.47
2023-02-17T05:54:17.597Z,84.88
2023-02-17T05:56:45.156Z,81.88
2023-02-17T05:59:12.661Z,84.15
2023-02-17T06:01:41.137Z,84.35
2023-02-17T06:04:09.223Z,84.53
2023-02-17T06:06:36.772Z,80.50
2023-02-17T06:09:04.415Z,82.22
2023-02-17T06:11:33.743Z,79.32
2023-02-17T06:14:02.148Z,84.72
2023-02-17T06:16:29.951Z,86.75
2023-02-17T06:19:00.055Z,83.72
2023-02-17T06:21:28.139Z,82.13
2023-02-17T06:23:56.270Z,84.03
2023-02-17T06:26:24.188Z,86.43
2023-02-17T06:28:52.077Z,84.10
2023-02-17T06:31:19.827Z,83.05
2023-02-17T06:33:47.700Z,80.78
2023-02-17T06:36:15.756Z,84.75
2023-02-17T06:38:43.628Z,83.28
2023-02-17T06:41:11.596Z,87.60
2023-02-17T06:43:39.661Z,84.05
2023-02-17T06:46:08.072Z,80.82
2023-02-17T06:48:35.942Z,81.57
2023-02-17T06:51:04.652Z,78.40
2023-02-17T06:53:32.876Z,77.32
2023-02-17T06:56:01.149Z,76.80
2023-02-17T06:58:29.164Z,76.35
2023-02-17T07:00:56.668Z,77.80
2023-02-17T07:03:24.589Z,75.43
2023-02-17T07:05:57.547Z,80.72
2023-02-17T07:08:26.630Z,77.03
2023-02-17T07:10:54.878Z,78.15
2023-02-17T07:13:22.846Z,78.18
2023-02-17T07:15:50.425Z,76.97
2023-02-17T07:18:18.448Z,77.32
2023-02-17T07:20:46.413Z,75.55
2023-02-17T07:23:14.120Z,72.68
2023-02-17T07:25:42.352Z,73.25
2023-02-17T07:28:10.685Z,73.60
2023-02-17T07:30:43.548Z,73.25
2023-02-17T07:33:11.576Z,76.32
2023-02-17T07:35:46.722Z,78.93
2023-02-17T07:38:14.741Z,75.82
2023-02-17T07:40:43.220Z,77.55
2023-02-17T07:43:11.241Z,77.97
2023-02-17T07:45:39.376Z,80.50
2023-02-17T07:48:06.890Z,75.65
2023-02-17T07:50:34.966Z,78.07
2023-02-17T07:53:02.569Z,84.10
2023-02-17T07:55:30.569Z,81.07
2023-02-17T07:57:59.948Z,87.53
2023-02-17T08:00:28.172Z,83.72
2023-02-17T08:02:56.234Z,84.28
2023-02-17T08:05:23.886Z,85.70
2023-02-17T08:08:12.016Z,86.43
2023-02-17T08:11:16.234Z,90.60
2023-02-17T08:13:45.582Z,93.75
2023-02-17T08:16:13.166Z,97.20
2023-02-17T08:18:41.264Z,97.60
2023-02-17T08:21:09.126Z,94.07
2023-02-17T08:23:37.189Z,92.72
2023-02-17T08:26:05.481Z,91.85
2023-02-17T08:28:33.411Z,91.22
2023-02-17T08:31:02.826Z,93.72
2023-02-17T08:33:30.868Z,94.68
2023-02-17T08:35:58.839Z,98.72
2023-02-17T08:38:27.179Z,101.95
2023-02-17T08:40:54.754Z,98.40
2023-02-17T08:43:23.306Z,96.57
2023-02-17T08:45:51.411Z,95.53
2023-02-17T08:48:19.469Z,96.75
2023-02-17T08:50:48.429Z,97.85
2023-02-17T08:53:16.984Z,99.00
2023-02-17T08:55:49.496Z,102.00
2023-02-17T08:58:18.077Z,107.65
2023-02-17T09:00:45.621Z,114.50
2023-02-17T09:03:14.050Z,109.93
2023-02-17T09:05:42.646Z,129.68
2023-02-17T09:08:11.135Z,121.72
2023-02-17T09:10:39.624Z,118.03
2023-02-17T09:13:07.698Z,117.90
2023-02-17T09:15:35.434Z,126.18
2023-02-17T09:18:04.002Z,124.30
2023-02-17T09:20:32.433Z,117.70
2023-02-17T09:23:00.163Z,116.25
2023-02-17T09:25:28.364Z,106.80
2023-02-17T09:27:57.956Z,108.65
2023-02-17T09:30:27.118Z,120.97
2023-02-17T09:32:55.069Z,122.50
2023-02-17T09:35:23.197Z,117.15
2023-02-17T09:37:51.334Z,119.75
2023-02-17T09:40:28.710Z,118.63
2023-02-17T09:42:56.702Z,117.15
2023-02-17T09:45:32.982Z,115.68
2023-02-17T09:48:06.430Z,118.18
2023-02-17T09:50:53.658Z,113.93
2023-02-17T09:53:50.844Z,117.03
2023-02-17T09:56:26.631Z,115.93
2023-02-17T09:58:57.958Z,117.78
2023-02-17T10:01:31.079Z,119.95
2023-02-17T10:04:05.201Z,121.95
2023-02-17T10:06:36.141Z,120.35
2023-02-17T10:09:03.700Z,120.75
2023-02-17T10:11:33.868Z,126.03
2023-02-17T10:14:42.668Z,126.43
2023-02-17T10:17:37.842Z,127.63
2023-02-17T10:20:24.161Z,123.57
2023-02-17T10:22:59.900Z,125.40
2023-02-17T10:25:54.079Z,122.57
2023-02-17T10:28:39.756Z,125.22
2023-02-17T10:31:15.521Z,123.70
2023-02-17T10:34:01.111Z,120.55
2023-02-17T10:36:58.101Z,124.20
2023-02-17T10:39:52.106Z,126.63
2023-02-17T10:42:36.473Z,130.55
2023-02-17T10:45:10.787Z,132.63
2023-02-17T10:47:40.120Z,131.27
2023-02-17T10:50:28.623Z,132.88
2023-02-17T10:52:56.756Z,131.52
2023-02-17T10:55:39.153Z,132.77
2023-02-17T10:58:34.338Z,133.32
2023-02-17T11:01:05.521Z,127.97
2023-02-17T11:03:36.962Z,123.80
2023-02-17T11:06:07.677Z,126.80
2023-02-17T11:08:41.547Z,127.18
2023-02-17T11:16:32.486Z,124.43
2023-02-17T11:19:01.279Z,122.72
2023-02-17T11:21:33.256Z,121.05
2023-02-17T11:24:04.790Z,124.80
2023-02-17T11:26:35.552Z,123.15
2023-02-17T11:29:22.802Z,124.95
2023-02-17T11:32:04.922Z,121.75
2023-02-17T11:34:34.909Z,122.43
2023-02-17T11:37:12.107Z,121.65
2023-02-17T11:39:42.267Z,120.60
2023-02-17T11:42:30.784Z,121.97
2023-02-17T11:45:00.623Z,119.72
2023-02-17T11:47:52.073Z,121.15
2023-02-17T11:50:40.921Z,120.25
2023-02-17T11:53:47.409Z,113.82
2023-02-17T11:56:22.814Z,112.25
2023-02-17T11:59:07.628Z,114.35
2023-02-17T12:01:50.204Z,110.18
2023-02-17T12:04:27.185Z,108.88
2023-02-17T12:07:15.377Z,106.32
2023-02-17T12:10:07.151Z,106.93
2023-02-17T12:13:13.719Z,101.70
2023-02-17T12:16:07.702Z,104.55
2023-02-17T12:19:19.773Z,99.88
2023-02-17T12:22:19.549Z,101.03
2023-02-17T12:25:11.504Z,96.20
2023-02-17T12:28:15.175Z,91.30
2023-02-17T12:31:05.134Z,93.20
2023-02-17T12:33:44.912Z,93.68
2023-02-17T12:36:16.018Z,87.70
2023-02-17T12:38:50.087Z,86.20
2023-02-17T12:41:41.292Z,78.82
2023-02-17T12:44:21.375Z,79.60
2023-02-17T12:46:57.475Z,75.88
2023-02-17T12:49:48.451Z,71.97
2023-02-17T12:52:22.340Z,75.97
2023-02-17T12:55:05.191Z,70.88
2023-02-17T12:57:56.205Z,69.78
2023-02-17T13:00:27.283Z,68.85
2023-02-17T13:02:59.179Z,67.65
2023-02-17T13:06:10.033Z,57.38
2023-02-17T13:08:57.735Z,57.45
2023-02-17T13:11:31.712Z,57.08
2023-02-17T13:14:24.966Z,51.35
2023-02-17T13:16:53.158Z,52.97
2023-02-17T13:19:32.385Z,49.65
2023-02-17T13:22:03.370Z,50.40
2023-02-17T13:24:53.234Z,48.75
2023-02-17T13:27:32.980Z,48.13
2023-02-17T13:30:29.443Z,48.08
2023-02-17T13:33:06.192Z,40.25
2023-02-17T13:35:37.426Z,37.90
2023-02-17T13:38:05.505Z,35.25
2023-02-17T13:40:39.243Z,38.53
2023-02-17T13:43:16.166Z,38.05
2023-02-17T13:46:03.265Z,48.97
2023-02-17T13:48:36.120Z,46.30
2023-02-17T13:51:07.145Z,46.67
2023-02-17T13:53:40.422Z,46.67
2023-02-17T13:56:12.310Z,37.03
2023-02-17T13:58:42.148Z,28.50
2023-02-17T14:01:17.507Z,20.13
2023-02-17T14:03:51.458Z,17.58
2023-02-17T14:06:40.501Z,23.85
2023-02-17T14:09:27.473Z,17.92
2023-02-17T14:11:56.185Z,17.38
2023-02-17T14:14:28.112Z,18.52
2023-02-17T14:17:09.247Z,18.05
2023-02-17T14:19:49.095Z,16.38
2023-02-17T14:22:34.138Z,20.40
2023-02-17T14:25:05.969Z,19.77
2023-02-17T14:27:52.976Z,19.58
2023-02-17T14:30:31.127Z,20.95
2023-02-17T14:33:23.968Z,23.02
2023-02-17T14:36:06.467Z,20.10
2023-02-17T14:38:41.444Z,17.70
2023-02-17T14:41:11.002Z,18.65
2023-02-17T14:43:38.906Z,18.23
2023-02-17T14:46:07.670Z,18.95
2023-02-17T14:48:35.805Z,18.80
2023-02-17T14:51:06.948Z,18.70
2023-02-17T14:53:40.518Z,17.88
2023-02-17T14:56:30.102Z,19.13
2023-02-17T14:58:57.749Z,18.75
2023-02-17T15:01:26.212Z,17.63
2023-02-17T15:03:54.910Z,19.02
2023-02-17T15:06:28.806Z,19.65
2023-02-17T15:08:58.648Z,17.92
2023-02-17T15:11:30.402Z,17.40
2023-02-17T15:13:57.966Z,16.42
2023-02-17T15:16:26.233Z,15.88
2023-02-17T15:18:54.902Z,16.83
2023-02-17T15:21:28.777Z,16.60
2023-02-17T15:23:58.776Z,18.13
2023-02-17T15:26:28.142Z,17.45
2023-02-17T15:28:57.759Z,17.48
2023-02-17T15:31:29.457Z,17.17
2023-02-17T15:33:59.594Z,17.88
2023-02-17T15:36:28.769Z,17.20
2023-02-17T15:38:56.594Z,17.98
2023-02-17T15:41:26.946Z,18.50
2023-02-17T15:43:57.403Z,18.80
2023-02-17T15:46:33.253Z,19.00
2023-02-17T15:49:01.268Z,19.50
2023-02-17T15:51:29.352Z,19.77
2023-02-17T15:53:57.017Z,20.60
2023-02-17T15:56:30.363Z,21.15
2023-02-17T15:59:04.468Z,20.40
2023-02-17T16:01:34.828Z,21.27
2023-02-17T16:04:03.156Z,19.88
2023-02-17T16:06:31.531Z,20.48
2023-02-17T16:08:59.778Z,20.45
2023-02-17T16:11:28.848Z,21.17
2023-02-17T16:13:56.901Z,20.13
2023-02-17T16:16:32.892Z,21.45
2023-02-17T16:19:01.974Z,20.88
2023-02-17T16:21:29.766Z,22.02
2023-02-17T16:23:59.901Z,22.38
2023-02-17T16:26:34.362Z,21.70
2023-02-17T16:29:17.354Z,21.95
2023-02-17T16:31:46.184Z,22.58
2023-02-17T16:34:18.521Z,22.23
2023-02-17T16:36:48.896Z,24.23
2023-02-17T16:39:20.204Z,22.55
2023-02-17T16:41:49.172Z,22.73
2023-02-17T16:44:20.220Z,23.75
2023-02-17T16:46:54.607Z,23.92
2023-02-17T16:49:32.726Z,24.20
2023-02-17T16:52:01.492Z,23.52
2023-02-17T16:54:29.674Z,24.95
2023-02-17T16:56:58.543Z,24.02
2023-02-17T16:59:26.816Z,24.77
2023-02-17T17:01:54.492Z,24.77
2023-02-17T17:04:22.330Z,27.42
2023-02-17T17:06:52.418Z,29.63
2023-02-17T17:09:23.821Z,26.70
2023-02-17T17:11:52.139Z,25.92
2023-02-17T17:14:21.629Z,29.48
2023-02-17T17:16:56.794Z,34.65
2023-02-17T17:19:25.567Z,36.05
2023-02-17T17:21:53.725Z,38.00
2023-02-17T17:24:22.098Z,45.85
2023-02-17T17:26:51.858Z,57.33
2023-02-17T17:29:20.726Z,61.60
2023-02-17T17:31:49.011Z,71.22
2023-02-17T17:34:17.191Z,79.57
2023-02-17T17:36:47.327Z,85.35
2023-02-17T17:39:18.701Z,93.38
2023-02-17T17:41:47.233Z,97.45
2023-02-17T17:44:16.303Z,94.20
2023-02-17T17:46:44.495Z,94.55
2023-02-17T17:49:14.597Z,96.53
2023-02-17T17:51:43.007Z,107.45
2023-02-17T17:54:11.626Z,102.93
2023-02-17T17:56:45.587Z,111.32
2023-02-17T17:59:14.322Z,115.28
2023-02-17T18:01:45.123Z,115.97
2023-02-17T18:04:14.195Z,122.25
2023-02-17T18:06:46.105Z,117.05
2023-02-17T18:09:31.083Z,119.63
2023-02-17T18:12:04.802Z,119.13
2023-02-17T18:14:33.111Z,120.82
2023-02-17T18:17:01.332Z,122.70
2023-02-17T18:19:30.906Z,123.38
2023-02-17T18:21:59.121Z,122.95
2023-02-17T18:24:27.165Z,127.72
2023-02-17T18:26:55.104Z,124.72
2023-02-17T18:29:23.015Z,124.35
2023-02-17T18:31:51.229Z,125.13
2023-02-17T18:34:19.561Z,132.35
2023-02-17T18:36:47.052Z,129.57
2023-02-17T18:39:15.406Z,131.45
2023-02-17T18:41:43.869Z,130.43
2023-02-17T18:44:13.732Z,129.13
2023-02-17T18:46:42.465Z,133.90
2023-02-17T18:49:10.496Z,133.90
2023-02-17T18:51:38.561Z,132.45
2023-02-17T18:54:10.797Z,134.70
2023-02-17T18:56:39.498Z,136.18
2023-02-17T18:59:08.116Z,130.55
2023-02-17T19:01:41.519Z,138.65
2023-02-17T19:04:10.239Z,139.57
2023-02-17T19:06:38.004Z,137.93
2023-02-17T19:09:06.229Z,139.85
2023-02-17T19:11:35.223Z,145.98
2023-02-17T19:14:03.441Z,147.85
2023-02-17T19:16:32.737Z,141.68
2023-02-17T19:19:00.879Z,140.73
2023-02-17T19:21:29.288Z,142.07
2023-02-17T19:23:56.815Z,143.65
2023-02-17T19:26:25.076Z,143.45
2023-02-17T19:28:53.210Z,137.77
2023-02-17T19:31:21.540Z,143.82
2023-02-17T19:33:49.821Z,146.77
2023-02-17T19:36:20.591Z,146.38
2023-02-17T19:38:49.987Z,146.55
2023-02-17T19:41:19.314Z,141.05
2023-02-17T19:43:47.400Z,141.13
2023-02-17T19:46:25.737Z,145.65
2023-02-17T19:48:53.749Z,143.57
2023-02-17T19:51:22.595Z,140.27
2023-02-17T19:53:50.600Z,141.00
2023-02-17T19:56:23.277Z,139.40
2023-02-17T19:58:52.108Z,138.73
2023-02-17T20:01:26.368Z,136.57
2023-02-17T20:03:55.208Z,136.00
2023-02-17T20:06:27.899Z,132.98
2023-02-17T20:09:05.070Z,134.18
2023-02-17T20:11:33.930Z,131.23
2023-02-17T20:14:02.135Z,133.38
2023-02-17T20:16:30.666Z,139.10
2023-02-17T20:19:02.044Z,139.57
2023-02-17T20:21:34.081Z,142.25
2023-02-17T20:24:03.428Z,145.15
2023-02-17T20:26:34.360Z,150.50
2023-02-17T20:29:02.992Z,146.68
2023-02-17T20:31:31.400Z,148.05
2023-02-17T20:34:02.155Z,149.63
2023-02-17T20:36:29.893Z,152.40
2023-02-17T20:38:58.472Z,148.40
2023-02-17T20:41:26.260Z,148.50
2023-02-17T20:43:54.267Z,150.80
2023-02-17T20:46:26.172Z,153.90
2023-02-17T20:48:54.533Z,150.40
2023-02-17T20:51:22.510Z,152.77
2023-02-17T20:53:51.300Z,152.90
2023-02-17T20:56:22.541Z,156.05
2023-02-17T20:58:51.797Z,148.43
2023-02-17T21:01:20.186Z,153.75
2023-02-17T21:03:48.306Z,151.50
2023-02-17T21:06:33.994Z,148.65
2023-02-17T21:09:05.674Z,156.05
2023-02-17T21:11:34.091Z,151.85
2023-02-17T21:14:02.101Z,150.32
2023-02-17T21:16:32.144Z,149.15
2023-02-17T21:19:01.485Z,148.57
2023-02-17T21:21:30.489Z,148.77
2023-02-17T21:23:59.812Z,143.15
2023-02-17T21:26:27.626Z,147.77
2023-02-17T21:28:56.183Z,148.55
2023-02-17T21:31:26.238Z,146.45
2023-02-17T21:33:53.896Z,146.90
2023-02-17T21:36:21.463Z,143.00
2023-02-17T21:38:49.453Z,146.43
2023-02-17T21:41:21.594Z,144.20
2023-02-17T21:44:08.164Z,146.57
2023-02-17T21:46:37.543Z,147.50
2023-02-17T21:49:05.574Z,145.15
2023-02-17T21:51:33.120Z,146.57
2023-02-17T21:54:01.212Z,144.93
2023-02-17T21:56:28.992Z,145.75
2023-02-17T21:58:57.876Z,142.77
2023-02-17T22:01:27.147Z,149.35
2023-02-17T22:03:55.305Z,144.15
2023-02-17T22:06:28.633Z,142.25
2023-02-17T22:08:58.078Z,138.75
2023-02-17T22:11:31.943Z,140.90
2023-02-17T22:16:35.927Z,142.30
2023-02-17T22:19:05.237Z,139.20
2023-02-17T22:21:33.846Z,143.50
2023-02-17T22:24:02.721Z,139.63
2023-02-17T22:26:31.347Z,136.13
2023-02-17T22:28:59.495Z,140.43
2023-02-17T22:31:29.149Z,137.35
2023-02-17T22:33:59.115Z,140.50
2023-02-17T22:36:27.998Z,140.82
2023-02-17T22:38:56.510Z,142.15
2023-02-17T22:41:26.093Z,145.50
2023-02-17T22:43:54.579Z,141.68
2023-02-17T22:46:25.206Z,134.32
2023-02-17T22:48:54.839Z,138.65
2023-02-17T22:51:31.861Z,138.82
2023-02-17T22:54:02.904Z,139.63
2023-02-17T22:56:31.364Z,142.80
2023-02-17T22:59:01.574Z,140.77
2023-02-17T23:01:32.189Z,143.98
2023-02-17T23:04:00.931Z,141.45
2023-02-17T23:06:30.162Z,143.88
2023-02-17T23:08:59.750Z,141.57
2023-02-17T23:11:51.094Z,142.50
2023-02-17T23:14:34.050Z,145.73
2023-02-17T23:17:05.425Z,142.68
2023-02-17T23:19:33.284Z,147.63
2023-02-17T23:22:04.179Z,141.00
2023-02-17T23:24:32.445Z,143.73
2023-02-17T23:27:02.141Z,138.82
2023-02-17T23:29:31.981Z,141.55
2023-02-17T23:31:59.806Z,150.27
2023-02-17T23:34:28.419Z,141.85
2023-02-17T23:36:56.469Z,143.82
2023-02-17T23:39:24.596Z,143.50
2023-02-17T23:41:52.489Z,146.85
2023-02-17T23:44:20.197Z,142.85
2023-02-17T23:46:48.011Z,142.82
2023-02-17T23:49:17.089Z,144.20
2023-02-17T23:51:46.908Z,141.57
2023-02-17T23:54:15.819Z,142.18
2023-02-17T23:56:43.729Z,140.98
2023-02-17T23:59:12.162Z,143.98
